createdAt,value
2022-12-17T00:00:50.981Z,98774.75
2022-12-17T00:03:37.762Z,98810.53
2022-12-17T00:06:23.730Z,98788.25
2022-12-17T00:09:09.213Z,98791.56
2022-12-17T00:11:54.634Z,98817.94
2022-12-17T00:14:41.846Z,98825.53
2022-12-17T00:17:27.256Z,98835.88
2022-12-17T00:20:12.574Z,98820.38
2022-12-17T00:22:58.174Z,98850.28
2022-12-17T00:25:44.668Z,98816.03
2022-12-17T00:28:31.150Z,98827.06
2022-12-17T00:31:16.778Z,98832.16
2022-12-17T00:34:02.235Z,98833.91
2022-12-17T00:36:47.700Z,98811.63
2022-12-17T00:39:33.060Z,98817.66
2022-12-17T00:42:18.594Z,98847.44
2022-12-17T00:45:04.287Z,98828.59
2022-12-17T00:47:49.813Z,98826.91
2022-12-17T00:50:35.834Z,98816.69
2022-12-17T00:53:21.473Z,98809.91
2022-12-17T00:56:07.111Z,98838.97
2022-12-17T00:58:52.798Z,98820.19
2022-12-17T01:01:38.334Z,98792.16
2022-12-17T01:04:23.796Z,98779.38
2022-12-17T01:07:09.268Z,98782.72
2022-12-17T01:09:55.199Z,98786.28
2022-12-17T01:12:41.472Z,98768.28
2022-12-17T01:15:27.007Z,98771.78
2022-12-17T01:18:12.543Z,98764.88
2022-12-17T01:20:57.860Z,98774.38
2022-12-17T01:23:43.284Z,98790.56
2022-12-17T01:26:28.700Z,98784.63
2022-12-17T01:29:16.040Z,98777.91
2022-12-17T01:32:01.499Z,98752.94
2022-12-17T01:34:46.897Z,98757.25
2022-12-17T01:37:32.310Z,98769.25
2022-12-17T01:40:18.001Z,98778.59
2022-12-17T01:43:04.776Z,98777.66
2022-12-17T01:46:08.539Z,98735.81
2022-12-17T01:48:59.230Z,98757.34
2022-12-17T01:51:44.767Z,98739.44
2022-12-17T01:54:30.749Z,98725.69
2022-12-17T01:57:16.479Z,98776.88
2022-12-17T02:00:23.052Z,98773.13
2022-12-17T02:03:08.695Z,98799.25
2022-12-17T02:06:02.331Z,98809.31
2022-12-17T02:09:15.736Z,98828.81
2022-12-17T02:12:13.854Z,98879.88
2022-12-17T02:15:05.653Z,98870.19
2022-12-17T02:18:04.212Z,98860.59
2022-12-17T02:20:53.775Z,98916.06
2022-12-17T02:24:01.877Z,98906.34
2022-12-17T02:27:01.867Z,98919.69
2022-12-17T02:29:50.647Z,98960.88
2022-12-17T02:32:36.333Z,98936.88
2022-12-17T02:35:23.390Z,98909.50
2022-12-17T02:38:09.213Z,98921.50
2022-12-17T02:40:57.595Z,98934.41
2022-12-17T02:43:44.623Z,98933.41
2022-12-17T02:46:30.187Z,98935.91
2022-12-17T02:49:15.604Z,98934.16
2022-12-17T02:52:01.783Z,98916.28
2022-12-17T02:54:50.989Z,98901.88
2022-12-17T02:57:39.984Z,98901.94
2022-12-17T03:00:30.070Z,98913.88
2022-12-17T03:03:15.627Z,98912.13
2022-12-17T03:06:01.342Z,98891.63
2022-12-17T03:08:46.766Z,98867.03
2022-12-17T03:11:32.223Z,98885.94
2022-12-17T03:14:17.871Z,98871.22
2022-12-17T03:17:03.525Z,98902.06
2022-12-17T03:19:51.597Z,98886.50
2022-12-17T03:22:37.330Z,98887.94
2022-12-17T03:25:25.594Z,98929.59
2022-12-17T03:28:11.142Z,98927.88
2022-12-17T03:30:56.979Z,98935.50
2022-12-17T03:33:42.334Z,98928.00
2022-12-17T03:36:28.167Z,98932.25
2022-12-17T03:39:13.775Z,98925.28
2022-12-17T03:41:59.604Z,98921.72
2022-12-17T03:44:49.620Z,98943.88
2022-12-17T03:47:35.354Z,98935.03
2022-12-17T03:50:22.125Z,98954.84
2022-12-17T03:53:16.008Z,98923.16
2022-12-17T03:56:01.453Z,98937.75
2022-12-17T03:58:50.502Z,98913.97
2022-12-17T04:01:36.066Z,98896.13
2022-12-17T04:04:21.696Z,98880.13
2022-12-17T04:07:09.739Z,98890.31
2022-12-17T04:10:08.321Z,98908.78
2022-12-17T04:12:57.159Z,98990.34
2022-12-17T04:15:52.204Z,99012.91
2022-12-17T04:18:37.807Z,99029.09
2022-12-17T04:21:24.423Z,99008.34
2022-12-17T04:24:09.876Z,99004.03
2022-12-17T04:27:01.454Z,99026.28
2022-12-17T04:29:46.910Z,99010.00
2022-12-17T04:32:35.875Z,98976.84
2022-12-17T04:35:21.591Z,98959.84
2022-12-17T04:38:14.695Z,98972.03
2022-12-17T04:41:01.315Z,98968.50
2022-12-17T04:43:46.723Z,98996.56
2022-12-17T04:46:34.871Z,98998.13
2022-12-17T04:49:20.314Z,98984.53
2022-12-17T04:52:08.299Z,98966.72
2022-12-17T04:54:53.946Z,98953.78
2022-12-17T04:57:41.843Z,98979.25
2022-12-17T05:00:27.892Z,99001.53
2022-12-17T05:03:13.689Z,98973.06
2022-12-17T05:06:00.292Z,98973.03
2022-12-17T05:08:45.600Z,98994.16
2022-12-17T05:11:31.259Z,98993.28
2022-12-17T05:14:17.936Z,99029.94
2022-12-17T05:17:04.504Z,99028.81
2022-12-17T05:19:50.104Z,99037.16
2022-12-17T05:22:35.574Z,99032.75
2022-12-17T05:25:21.369Z,99035.09
2022-12-17T05:28:06.895Z,99040.25
2022-12-17T05:30:52.560Z,99070.00
2022-12-17T05:33:38.496Z,99069.75
2022-12-17T05:36:24.313Z,99073.94
2022-12-17T05:39:09.746Z,99105.50
2022-12-17T05:41:55.116Z,99085.66
2022-12-17T05:44:43.029Z,99113.09
2022-12-17T05:47:28.642Z,99108.50
2022-12-17T05:50:14.362Z,99109.47
2022-12-17T05:52:59.920Z,99110.16
2022-12-17T05:55:45.489Z,99132.38
2022-12-17T05:58:30.875Z,99119.22
2022-12-17T06:01:19.017Z,99159.34
2022-12-17T06:04:04.540Z,99159.91
2022-12-17T06:06:51.021Z,99159.91
2022-12-17T06:09:36.802Z,99172.53
2022-12-17T06:12:22.245Z,99193.06
2022-12-17T06:15:07.890Z,99180.91
2022-12-17T06:17:53.267Z,99183.41
2022-12-17T06:20:38.792Z,99184.31
2022-12-17T06:23:34.321Z,99162.16
2022-12-17T06:26:23.431Z,99219.41
2022-12-17T06:29:11.324Z,99172.91
2022-12-17T06:31:57.132Z,99172.06
2022-12-17T06:34:42.604Z,99178.78
2022-12-17T06:37:27.999Z,99194.13
2022-12-17T06:40:19.461Z,99221.50
2022-12-17T06:43:13.638Z,99212.81
2022-12-17T06:45:59.036Z,99216.78
2022-12-17T06:48:44.745Z,99210.03
2022-12-17T06:51:30.500Z,99209.25
2022-12-17T06:54:16.130Z,99208.22
2022-12-17T06:57:01.679Z,99201.31
2022-12-17T06:59:47.238Z,99254.56
2022-12-17T07:02:46.703Z,99230.38
2022-12-17T07:05:42.983Z,99199.50
2022-12-17T07:08:28.742Z,99218.13
2022-12-17T07:11:14.023Z,99227.34
2022-12-17T07:13:59.649Z,99251.22
2022-12-17T07:16:45.307Z,99287.22
2022-12-17T07:19:30.806Z,99244.13
2022-12-17T07:22:16.586Z,99268.00
2022-12-17T07:25:01.995Z,99293.88
2022-12-17T07:27:47.374Z,99267.00
2022-12-17T07:30:33.193Z,99310.81
2022-12-17T07:33:23.678Z,99280.56
2022-12-17T07:36:10.995Z,99317.63
2022-12-17T07:38:56.502Z,99299.50
2022-12-17T07:41:41.822Z,99283.09
2022-12-17T07:44:27.325Z,99310.84
2022-12-17T07:47:29.569Z,99300.63
2022-12-17T07:50:14.753Z,99301.22
2022-12-17T07:53:00.351Z,99288.25
2022-12-17T07:55:46.057Z,99322.59
2022-12-17T07:58:31.783Z,99315.41
2022-12-17T08:01:20.482Z,99336.00
2022-12-17T08:04:05.899Z,99338.41
2022-12-17T08:06:55.119Z,99333.44
2022-12-17T08:09:43.929Z,99368.59
2022-12-17T08:12:29.600Z,99370.78
2022-12-17T08:15:15.193Z,99354.41
2022-12-17T08:18:07.845Z,99375.94
2022-12-17T08:20:54.553Z,99370.78
2022-12-17T08:23:41.004Z,99390.50
2022-12-17T08:26:26.503Z,99384.47
2022-12-17T08:29:12.172Z,99377.34
2022-12-17T08:31:57.776Z,99382.56
2022-12-17T08:34:43.428Z,99368.59
2022-12-17T08:37:36.360Z,99373.03
2022-12-17T08:40:31.824Z,99378.06
2022-12-17T08:43:17.419Z,99398.50
2022-12-17T08:46:07.081Z,99387.34
2022-12-17T08:48:54.408Z,99400.00
2022-12-17T08:51:40.975Z,99438.28
2022-12-17T08:54:26.549Z,99444.50
2022-12-17T08:57:31.524Z,99419.69
2022-12-17T09:00:18.073Z,99443.00
2022-12-17T09:03:04.710Z,99414.63
2022-12-17T09:06:00.446Z,99443.69
2022-12-17T09:08:52.435Z,99416.22
2022-12-17T09:11:39.069Z,99403.84
2022-12-17T09:14:29.881Z,99382.41
2022-12-17T09:17:20.849Z,99439.13
2022-12-17T09:20:19.141Z,99408.78
2022-12-17T09:23:07.350Z,99414.84
2022-12-17T09:26:00.109Z,99448.97
2022-12-17T09:28:48.853Z,99468.56
2022-12-17T09:31:40.788Z,99438.34
2022-12-17T09:34:26.314Z,99450.38
2022-12-17T09:37:24.737Z,99469.19
2022-12-17T09:40:12.953Z,99478.59
2022-12-17T09:43:54.881Z,99468.56
2022-12-17T09:46:29.972Z,99466.53
2022-12-17T09:49:44.830Z,99527.41
2022-12-17T09:52:43.931Z,99484.53
2022-12-17T09:55:47.932Z,99482.72
2022-12-17T09:58:44.033Z,99479.41
2022-12-17T10:01:38.529Z,99496.63
2022-12-17T10:04:26.526Z,99465.72
2022-12-17T10:07:35.530Z,99475.28
2022-12-17T10:11:34.565Z,99474.25
2022-12-17T10:13:53.381Z,99480.84
2022-12-17T10:16:44.942Z,99530.75
2022-12-17T10:19:54.377Z,99488.28
2022-12-17T10:22:39.936Z,99527.78
2022-12-17T10:25:36.047Z,99531.75
2022-12-17T10:28:25.364Z,99543.53
2022-12-17T10:31:10.979Z,99515.91
2022-12-17T10:33:57.406Z,99535.66
2022-12-17T10:36:43.193Z,99529.72
2022-12-17T10:39:37.243Z,99518.31
2022-12-17T10:42:22.955Z,99506.00
2022-12-17T10:45:08.321Z,99535.88
2022-12-17T10:47:54.020Z,99534.81
2022-12-17T10:50:42.060Z,99578.88
2022-12-17T10:53:40.703Z,99548.75
2022-12-17T10:56:26.153Z,99551.16
2022-12-17T10:59:12.306Z,99584.59
2022-12-17T11:02:00.776Z,99565.66
2022-12-17T11:04:47.995Z,99542.53
2022-12-17T11:07:36.536Z,99575.13
2022-12-17T11:10:22.652Z,99587.22
2022-12-17T11:13:10.658Z,99596.03
2022-12-17T11:16:04.299Z,99546.06
2022-12-17T11:18:55.934Z,99576.41
2022-12-17T11:22:12.200Z,99582.22
2022-12-17T11:25:22.263Z,99582.00
2022-12-17T11:28:17.367Z,99570.59
2022-12-17T11:31:07.819Z,99578.19
2022-12-17T11:34:09.971Z,99599.78
2022-12-17T11:37:04.003Z,99627.25
2022-12-17T11:40:17.741Z,99604.59
2022-12-17T11:43:09.628Z,99601.31
2022-12-17T11:46:16.373Z,99625.25
2022-12-17T11:49:04.708Z,99601.25
2022-12-17T11:52:32.346Z,99640.69
2022-12-17T11:55:30.166Z,99639.47
2022-12-17T11:58:19.892Z,99653.22
2022-12-17T12:01:20.761Z,99638.34
2022-12-17T12:04:13.852Z,99642.50
2022-12-17T12:07:18.701Z,99653.53
2022-12-17T12:10:07.006Z,99673.53
2022-12-17T12:13:02.523Z,99679.53
2022-12-17T12:16:07.674Z,99683.72
2022-12-17T12:19:05.383Z,99692.84
2022-12-17T12:22:10.265Z,99682.91
2022-12-17T12:25:09.666Z,99699.31
2022-12-17T12:28:06.749Z,99689.78
2022-12-17T12:31:00.673Z,99710.16
2022-12-17T12:34:14.120Z,99714.97
2022-12-17T12:36:59.455Z,99711.56
2022-12-17T12:39:53.207Z,99715.78
2022-12-17T12:42:44.025Z,99715.63
2022-12-17T12:45:48.232Z,99725.84
2022-12-17T12:48:40.052Z,99721.50
2022-12-17T12:51:42.899Z,99732.44
2022-12-17T12:54:40.731Z,99731.56
2022-12-17T12:58:11.104Z,99725.56
2022-12-17T13:00:58.280Z,99709.66
2022-12-17T13:03:45.763Z,99749.22
2022-12-17T13:06:14.069Z,99756.81
2022-12-17T13:08:41.280Z,99727.44
2022-12-17T13:11:28.748Z,99743.97
2022-12-17T13:13:57.685Z,99761.63
2022-12-17T13:16:48.806Z,99777.06
2022-12-17T13:19:31.385Z,99772.81
2022-12-17T13:22:21.664Z,99778.94
2022-12-17T13:24:52.509Z,99756.50
2022-12-17T13:27:34.122Z,99772.81
2022-12-17T13:30:19.030Z,99793.31
2022-12-17T13:33:16.285Z,99783.13
2022-12-17T13:36:09.306Z,99789.19
2022-12-17T13:38:39.383Z,99792.50
2022-12-17T13:41:10.837Z,99795.97
2022-12-17T13:43:54.176Z,99773.28
2022-12-17T13:46:47.278Z,99796.25
2022-12-17T13:49:18.485Z,99783.28
2022-12-17T13:51:45.790Z,99794.66
2022-12-17T13:54:16.314Z,99818.94
2022-12-17T13:56:43.288Z,99827.53
2022-12-17T13:59:22.210Z,99811.03
2022-12-17T14:01:51.084Z,99816.22
2022-12-17T14:04:22.097Z,99800.53
2022-12-17T14:06:49.083Z,99813.97
2022-12-17T14:12:38.524Z,99827.81
2022-12-17T14:15:27.207Z,99811.88
2022-12-17T14:17:59.048Z,99860.31
2022-12-17T14:20:41.403Z,99865.50
2022-12-17T14:23:30.470Z,99828.88
2022-12-17T14:26:01.065Z,99876.59
2022-12-17T14:28:38.092Z,99877.03
2022-12-17T14:31:27.483Z,99868.03
2022-12-17T14:34:02.294Z,99870.75
2022-12-17T14:36:29.400Z,99862.28
2022-12-17T14:39:03.690Z,99880.13
2022-12-17T14:41:54.552Z,99845.13
2022-12-17T14:44:24.123Z,99850.06
2022-12-17T14:46:51.950Z,99837.34
2022-12-17T14:49:20.305Z,99879.13
2022-12-17T14:51:47.345Z,99860.59
2022-12-17T14:54:14.343Z,99879.75
2022-12-17T14:56:41.803Z,99860.44
2022-12-17T14:59:24.736Z,99872.44
2022-12-17T15:01:56.451Z,99896.53
2022-12-17T15:04:23.732Z,99890.97
2022-12-17T15:06:50.769Z,99927.94
2022-12-17T15:09:17.685Z,99931.84
2022-12-17T15:11:44.560Z,99941.84
2022-12-17T15:14:11.365Z,99934.00
2022-12-17T15:16:38.338Z,99944.00
2022-12-17T15:19:05.265Z,99945.50
2022-12-17T15:21:33.641Z,99959.81
2022-12-17T15:24:00.559Z,99929.41
2022-12-17T15:26:27.469Z,99929.97
2022-12-17T15:28:54.770Z,99968.09
2022-12-17T15:31:25.007Z,99945.50
2022-12-17T15:33:53.700Z,99976.75
2022-12-17T15:36:20.558Z,99978.22
2022-12-17T15:38:47.707Z,99978.34
2022-12-17T15:41:33.837Z,99982.66
2022-12-17T15:44:00.803Z,99957.38
2022-12-17T15:46:30.043Z,99954.91
2022-12-17T15:48:57.200Z,99994.41
2022-12-17T15:51:24.117Z,99979.47
2022-12-17T15:53:51.107Z,99964.75
2022-12-17T15:56:23.410Z,99993.28
2022-12-17T15:58:50.473Z,99998.25
2022-12-17T16:01:17.781Z,100008.59
2022-12-17T16:03:44.865Z,99982.47
2022-12-17T16:06:11.921Z,99987.53
2022-12-17T16:08:39.633Z,99992.66
2022-12-17T16:11:13.999Z,100008.25
2022-12-17T16:13:41.044Z,99994.19
2022-12-17T16:16:08.987Z,100014.25
2022-12-17T16:18:39.223Z,99994.91
2022-12-17T16:21:10.104Z,100025.28
2022-12-17T16:23:37.149Z,100031.97
2022-12-17T16:26:08.057Z,100011.06
2022-12-17T16:28:35.798Z,100009.16
2022-12-17T16:31:08.106Z,100048.88
2022-12-17T16:33:37.008Z,100016.81
2022-12-17T16:36:04.652Z,100038.56
2022-12-17T16:38:31.866Z,100025.28
2022-12-17T16:41:01.312Z,100061.53
2022-12-17T16:43:30.487Z,100039.94
2022-12-17T16:45:57.652Z,100057.56
2022-12-17T16:48:24.739Z,100055.84
2022-12-17T16:50:51.708Z,100078.38
2022-12-17T16:53:21.427Z,100059.97
2022-12-17T16:55:49.648Z,100078.97
2022-12-17T16:58:17.292Z,100066.13
2022-12-17T17:00:45.323Z,100058.25
2022-12-17T17:03:12.560Z,100071.66
2022-12-17T17:05:39.976Z,100067.47
2022-12-17T17:08:07.062Z,100078.56
2022-12-17T17:10:35.645Z,100074.41
2022-12-17T17:13:02.753Z,100090.41
2022-12-17T17:15:29.621Z,100108.69
2022-12-17T17:18:01.954Z,100074.00
2022-12-17T17:20:32.613Z,100110.25
2022-12-17T17:22:59.920Z,100084.97
2022-12-17T17:25:38.833Z,100078.97
2022-12-17T17:28:14.152Z,100110.06
2022-12-17T17:30:41.081Z,100088.94
2022-12-17T17:33:07.942Z,100094.97
2022-12-17T17:35:34.940Z,100129.53
2022-12-17T17:38:01.803Z,100109.19
2022-12-17T17:40:28.747Z,100109.34
2022-12-17T17:42:55.644Z,100137.47
2022-12-17T17:45:22.589Z,100144.28
2022-12-17T17:47:49.444Z,100112.94
2022-12-17T17:50:16.500Z,100156.84
2022-12-17T17:52:43.379Z,100110.69
2022-12-17T17:55:10.291Z,100120.16
2022-12-17T17:57:37.179Z,100159.00
2022-12-17T18:00:04.594Z,100146.78
2022-12-17T18:02:32.409Z,100132.72
2022-12-17T18:04:59.461Z,100155.25
2022-12-17T18:07:27.160Z,100162.50
2022-12-17T18:09:54.963Z,100145.97
2022-12-17T18:12:40.369Z,100174.31
2022-12-17T18:15:17.716Z,100153.06
2022-12-17T18:17:50.211Z,100176.16
2022-12-17T18:20:17.226Z,100169.84
2022-12-17T18:22:46.354Z,100166.81
2022-12-17T18:25:14.451Z,100188.53
2022-12-17T18:27:41.376Z,100179.47
2022-12-17T18:30:08.961Z,100193.28
2022-12-17T18:32:36.079Z,100209.50
2022-12-17T18:35:02.965Z,100178.84
2022-12-17T18:37:29.851Z,100193.25
2022-12-17T18:39:56.797Z,100192.38
2022-12-17T18:42:42.170Z,100194.66
2022-12-17T18:45:09.401Z,100204.63
2022-12-17T18:47:36.252Z,100223.97
2022-12-17T18:50:03.256Z,100222.94
2022-12-17T18:52:30.148Z,100206.03
2022-12-17T18:54:57.107Z,100234.47
2022-12-17T18:57:24.140Z,100236.06
2022-12-17T18:59:51.020Z,100214.84
2022-12-17T19:02:18.137Z,100218.94
2022-12-17T19:04:45.108Z,100249.94
2022-12-17T19:07:12.000Z,100222.91
2022-12-17T19:09:40.528Z,100223.59
2022-12-17T19:12:08.365Z,100236.47
2022-12-17T19:14:35.523Z,100225.88
2022-12-17T19:17:02.616Z,100227.22
2022-12-17T19:19:29.621Z,100234.88
2022-12-17T19:21:56.582Z,100271.94
2022-12-17T19:24:23.642Z,100243.16
2022-12-17T19:26:50.722Z,100274.22
2022-12-17T19:29:17.990Z,100269.63
2022-12-17T19:31:45.903Z,100257.03
2022-12-17T19:34:14.056Z,100288.19
2022-12-17T19:36:41.013Z,100262.81
2022-12-17T19:39:08.884Z,100269.59
2022-12-17T19:41:35.757Z,100292.81
2022-12-17T19:44:04.567Z,100264.91
2022-12-17T19:46:32.060Z,100295.00
2022-12-17T19:48:59.023Z,100291.38
2022-12-17T19:51:28.343Z,100278.31
2022-12-17T19:53:55.350Z,100279.81
2022-12-17T19:56:26.558Z,100275.75
2022-12-17T19:58:55.976Z,100313.06
2022-12-17T20:01:28.104Z,100285.94
2022-12-17T20:03:55.257Z,100294.88
2022-12-17T20:06:24.116Z,100315.69
2022-12-17T20:08:51.013Z,100301.50
2022-12-17T20:11:36.227Z,100303.75
2022-12-17T20:14:09.400Z,100345.00
2022-12-17T20:16:38.246Z,100320.38
2022-12-17T20:19:08.229Z,100339.28
2022-12-17T20:21:35.130Z,100321.78
2022-12-17T20:24:02.183Z,100329.94
2022-12-17T20:26:29.038Z,100340.03
2022-12-17T20:28:56.036Z,100337.19
2022-12-17T20:31:23.057Z,100369.31
2022-12-17T20:33:50.004Z,100375.91
2022-12-17T20:36:18.753Z,100347.88
2022-12-17T20:38:45.749Z,100358.06
2022-12-17T20:41:19.886Z,100360.31
2022-12-17T20:43:47.071Z,100362.66
2022-12-17T20:46:14.231Z,100384.06
2022-12-17T20:48:42.117Z,100361.34
2022-12-17T20:51:13.281Z,100398.63
2022-12-17T20:53:40.327Z,100404.34
2022-12-17T20:56:09.174Z,100381.53
2022-12-17T20:58:36.652Z,100385.59
2022-12-17T21:01:09.269Z,100407.28
2022-12-17T21:03:36.277Z,100384.28
2022-12-17T21:06:11.093Z,100372.84
2022-12-17T21:08:39.268Z,100420.31
2022-12-17T21:11:08.509Z,100389.94
2022-12-17T21:13:35.550Z,100405.44
2022-12-17T21:16:07.132Z,100397.13
2022-12-17T21:18:34.174Z,100425.41
2022-12-17T21:21:09.041Z,100430.38
2022-12-17T21:23:36.218Z,100406.44
2022-12-17T21:26:13.970Z,100446.16
2022-12-17T21:28:42.458Z,100417.31
2022-12-17T21:31:31.575Z,100412.69
2022-12-17T21:34:00.639Z,100429.13
2022-12-17T21:36:28.749Z,100444.28
2022-12-17T21:38:55.853Z,100418.22
2022-12-17T21:41:26.805Z,100450.28
2022-12-17T21:43:58.811Z,100465.50
2022-12-17T21:46:29.149Z,100458.38
2022-12-17T21:48:57.208Z,100441.50
2022-12-17T21:51:24.166Z,100455.19
2022-12-17T21:53:59.020Z,100449.53
2022-12-17T21:56:26.308Z,100473.69
2022-12-17T21:59:00.168Z,100445.66
2022-12-17T22:01:28.037Z,100488.03
2022-12-17T22:03:56.777Z,100457.88
2022-12-17T22:06:25.960Z,100458.78
2022-12-17T22:09:00.176Z,100478.66
2022-12-17T22:11:36.507Z,100491.63
2022-12-17T22:14:08.618Z,100482.53
2022-12-17T22:16:42.484Z,100476.31
2022-12-17T22:19:10.525Z,100501.34
2022-12-17T22:21:39.283Z,100470.78
2022-12-17T22:24:06.689Z,100481.16
2022-12-17T22:26:36.348Z,100495.69
2022-12-17T22:29:03.487Z,100473.97
2022-12-17T22:32:05.706Z,100470.31
2022-12-17T22:35:31.277Z,100480.28
2022-12-17T22:42:17.664Z,100466.53
2022-12-17T22:44:17.219Z,100500.53
2022-12-17T22:44:49.041Z,100470.78
2022-12-17T22:46:03.991Z,100478.22
2022-12-17T22:48:31.878Z,100487.47
2022-12-17T22:51:05.833Z,100496.94
2022-12-17T22:53:37.368Z,100493.53
2022-12-17T22:56:18.521Z,100520.00
2022-12-17T22:58:53.399Z,100522.63
2022-12-17T23:01:23.178Z,100502.66
2022-12-17T23:03:54.125Z,100525.03
2022-12-17T23:06:21.270Z,100530.09
2022-12-17T23:08:48.132Z,100510.47
2022-12-17T23:11:17.427Z,100549.34
2022-12-17T23:13:44.320Z,100529.09
2022-12-17T23:16:13.350Z,100532.28
2022-12-17T23:18:41.256Z,100566.25
2022-12-17T23:21:10.958Z,100567.00
2022-12-17T23:23:38.437Z,100545.94
2022-12-17T23:26:14.205Z,100563.22
2022-12-17T23:28:41.373Z,100565.66
2022-12-17T23:31:10.137Z,100554.75
2022-12-17T23:33:37.625Z,100586.00
2022-12-17T23:36:06.595Z,100580.56
2022-12-17T23:38:33.785Z,100555.31
2022-12-17T23:41:10.853Z,100561.88
2022-12-17T23:43:38.313Z,100566.84
2022-12-17T23:46:05.586Z,100576.44
2022-12-17T23:48:34.028Z,100574.03
2022-12-17T23:51:01.023Z,100584.09
2022-12-17T23:53:28.750Z,100566.19
2022-12-17T23:55:55.716Z,100584.56
2022-12-17T23:58:22.822Z,100575.16
